createdAt,value
2023-02-08T00:00:53.265Z,-3.91
2023-02-08T00:03:19.811Z,-3.84
2023-02-08T00:05:46.457Z,-3.75
2023-02-08T00:08:13.051Z,-3.81
2023-02-08T00:10:40.210Z,-3.80
2023-02-08T00:13:07.645Z,-3.97
2023-02-08T00:15:34.157Z,-4.01
2023-02-08T00:18:00.653Z,-4.06
2023-02-08T00:20:27.151Z,-4.16
2023-02-08T00:22:53.615Z,-4.11
2023-02-08T00:25:20.301Z,-4.10
2023-02-08T00:27:46.839Z,-4.12
2023-02-08T00:30:13.420Z,-4.22
2023-02-08T00:32:39.935Z,-4.22
2023-02-08T00:35:07.102Z,-4.22
2023-02-08T00:37:33.718Z,-4.20
2023-02-08T00:40:02.461Z,-4.19
2023-02-08T00:42:30.070Z,-4.19
2023-02-08T00:44:56.808Z,-4.20
2023-02-08T00:47:24.129Z,-4.25
2023-02-08T00:49:51.224Z,-4.30
2023-02-08T00:52:18.680Z,-4.36
2023-02-08T00:54:45.187Z,-4.46
2023-02-08T00:57:11.663Z,-4.43
2023-02-08T00:59:38.415Z,-4.45
2023-02-08T01:02:06.468Z,-4.51
2023-02-08T01:04:32.933Z,-4.68
2023-02-08T01:07:01.402Z,-4.61
2023-02-08T01:09:27.845Z,-4.58
2023-02-08T01:11:54.282Z,-4.68
2023-02-08T01:14:20.793Z,-4.74
2023-02-08T01:16:47.405Z,-4.77
2023-02-08T01:19:13.913Z,-4.88
2023-02-08T01:21:42.727Z,-4.80
2023-02-08T01:24:10.972Z,-4.71
2023-02-08T01:26:38.092Z,-4.83
2023-02-08T01:29:04.858Z,-4.86
2023-02-08T01:31:35.038Z,-4.87
2023-02-08T01:34:03.528Z,-4.94
2023-02-08T01:36:32.446Z,-4.79
2023-02-08T01:38:59.475Z,-4.65
2023-02-08T01:41:30.596Z,-4.66
2023-02-08T01:45:06.379Z,-4.65
2023-02-08T01:47:33.529Z,-4.60
2023-02-08T01:50:00.797Z,-4.58
2023-02-08T01:52:28.839Z,-4.70
2023-02-08T01:55:27.835Z,-4.84
2023-02-08T01:57:58.777Z,-4.83
2023-02-08T02:00:25.424Z,-4.72
2023-02-08T02:02:57.444Z,-4.73
2023-02-08T02:05:31.147Z,-4.73
2023-02-08T02:07:59.878Z,-4.60
2023-02-08T02:10:32.293Z,-4.73
2023-02-08T02:13:11.224Z,-5.03
2023-02-08T02:15:37.782Z,-5.02
2023-02-08T02:18:08.164Z,-4.98
2023-02-08T02:20:58.299Z,-4.87
2023-02-08T02:23:55.094Z,-4.84
2023-02-08T02:26:46.398Z,-4.75
2023-02-08T02:29:47.338Z,-4.61
2023-02-08T02:32:39.214Z,-4.58
2023-02-08T02:35:08.587Z,-4.51
2023-02-08T02:38:53.297Z,-4.83
2023-02-08T02:42:28.832Z,-5.19
2023-02-08T02:45:14.968Z,-5.23
2023-02-08T02:47:58.920Z,-5.22
2023-02-08T02:50:37.000Z,-5.27
2023-02-08T02:53:21.972Z,-5.15
2023-02-08T02:56:05.662Z,-5.11
2023-02-08T02:58:33.836Z,-5.18
2023-02-08T03:01:00.496Z,-5.24
2023-02-08T03:03:32.930Z,-5.13
2023-02-08T03:06:07.269Z,-5.08
2023-02-08T03:08:49.697Z,-5.04
2023-02-08T03:11:28.400Z,-5.09
2023-02-08T03:14:42.257Z,-5.11
2023-02-08T03:17:40.632Z,-5.05
2023-02-08T03:20:21.581Z,-5.09
2023-02-08T03:23:18.600Z,-5.19
2023-02-08T03:26:06.043Z,-5.36
2023-02-08T03:29:00.194Z,-5.29
2023-02-08T03:31:33.369Z,-5.13
2023-02-08T03:34:20.996Z,-5.04
2023-02-08T03:36:58.442Z,-5.17
2023-02-08T03:39:30.023Z,-5.11
2023-02-08T03:42:03.841Z,-5.00
2023-02-08T03:44:39.067Z,-4.97
2023-02-08T03:47:18.053Z,-4.90
2023-02-08T03:49:49.835Z,-4.89
2023-02-08T03:52:16.940Z,-4.99
2023-02-08T03:54:57.437Z,-5.03
2023-02-08T03:57:34.858Z,-5.20
2023-02-08T04:00:14.480Z,-5.12
2023-02-08T04:02:53.247Z,-5.06
2023-02-08T04:05:21.431Z,-5.05
2023-02-08T04:07:48.496Z,-5.08
2023-02-08T04:10:15.705Z,-5.05
2023-02-08T04:12:44.124Z,-5.16
2023-02-08T04:15:10.645Z,-5.19
2023-02-08T04:17:37.089Z,-5.28
2023-02-08T04:20:03.916Z,-5.22
2023-02-08T04:22:30.420Z,-5.17
2023-02-08T04:24:56.873Z,-5.13
2023-02-08T04:27:26.017Z,-5.06
2023-02-08T04:29:52.532Z,-5.18
2023-02-08T04:32:19.006Z,-5.35
2023-02-08T04:34:45.441Z,-5.54
2023-02-08T04:37:16.193Z,-5.55
2023-02-08T04:39:42.680Z,-5.88
2023-02-08T04:42:09.167Z,-5.97
2023-02-08T04:44:35.678Z,-5.90
2023-02-08T04:47:02.125Z,-5.72
2023-02-08T04:49:28.585Z,-5.53
2023-02-08T04:51:55.078Z,-5.42
2023-02-08T04:54:21.833Z,-5.42
2023-02-08T04:56:48.559Z,-5.38
2023-02-08T04:59:15.128Z,-5.31
2023-02-08T05:01:41.767Z,-5.44
2023-02-08T05:04:08.321Z,-5.60
2023-02-08T05:06:35.114Z,-5.74
2023-02-08T05:09:01.760Z,-5.68
2023-02-08T05:11:28.881Z,-5.68
2023-02-08T05:13:55.396Z,-5.57
2023-02-08T05:16:21.968Z,-5.49
2023-02-08T05:18:48.521Z,-5.45
2023-02-08T05:21:16.052Z,-5.42
2023-02-08T05:23:42.558Z,-5.45
2023-02-08T05:26:11.396Z,-5.51
2023-02-08T05:28:38.551Z,-5.58
2023-02-08T05:31:25.749Z,-5.75
2023-02-08T05:33:53.632Z,-5.66
2023-02-08T05:36:21.563Z,-5.59
2023-02-08T05:38:48.046Z,-5.53
2023-02-08T05:41:14.895Z,-5.55
2023-02-08T05:43:41.745Z,-5.58
2023-02-08T05:46:08.582Z,-5.61
2023-02-08T05:48:35.447Z,-5.55
2023-02-08T05:51:01.930Z,-5.59
2023-02-08T05:53:28.478Z,-5.55
2023-02-08T05:55:57.907Z,-5.53
2023-02-08T05:58:26.555Z,-5.52
2023-02-08T06:00:53.504Z,-5.53
2023-02-08T06:03:20.159Z,-5.56
2023-02-08T06:05:46.980Z,-5.68
2023-02-08T06:08:13.517Z,-5.68
2023-02-08T06:10:40.468Z,-5.65
2023-02-08T06:13:07.148Z,-5.67
2023-02-08T06:15:33.627Z,-5.68
2023-02-08T06:18:00.098Z,-5.71
2023-02-08T06:20:26.687Z,-5.75
2023-02-08T06:22:53.209Z,-5.83
2023-02-08T06:25:19.755Z,-5.90
2023-02-08T06:27:46.302Z,-5.84
2023-02-08T06:30:13.318Z,-5.75
2023-02-08T06:32:41.957Z,-5.72
2023-02-08T06:35:09.009Z,-5.73
2023-02-08T06:37:35.628Z,-5.67
2023-02-08T06:40:02.328Z,-5.66
2023-02-08T06:42:29.002Z,-5.68
2023-02-08T06:45:01.651Z,-5.66
2023-02-08T06:47:29.100Z,-5.66
2023-02-08T06:49:55.752Z,-5.65
2023-02-08T06:52:22.692Z,-5.62
2023-02-08T06:54:51.793Z,-5.69
2023-02-08T06:57:18.232Z,-5.92
2023-02-08T06:59:45.519Z,-5.92
2023-02-08T07:02:21.175Z,-5.84
2023-02-08T07:04:48.185Z,-5.78
2023-02-08T07:07:17.087Z,-5.78
2023-02-08T07:09:44.022Z,-5.71
2023-02-08T07:12:12.008Z,-5.75
2023-02-08T07:14:43.808Z,-5.78
2023-02-08T07:17:11.937Z,-5.69
2023-02-08T07:19:39.234Z,-5.74
2023-02-08T07:22:09.230Z,-5.75
2023-02-08T07:24:41.511Z,-5.90
2023-02-08T07:27:11.549Z,-5.84
2023-02-08T07:29:38.539Z,-5.78
2023-02-08T07:32:07.882Z,-5.70
2023-02-08T07:34:37.905Z,-5.68
2023-02-08T07:37:04.744Z,-5.58
2023-02-08T07:39:31.428Z,-5.60
2023-02-08T07:41:59.266Z,-5.53
2023-02-08T07:44:31.264Z,-5.69
2023-02-08T07:46:57.776Z,-5.70
2023-02-08T07:49:24.352Z,-5.69
2023-02-08T07:51:50.877Z,-5.61
2023-02-08T07:54:17.376Z,-5.52
2023-02-08T07:56:43.943Z,-5.43
2023-02-08T07:59:10.766Z,-5.30
2023-02-08T08:01:37.375Z,-5.19
2023-02-08T08:04:04.248Z,-5.10
2023-02-08T08:06:30.794Z,-5.15
2023-02-08T08:08:57.407Z,-5.17
2023-02-08T08:11:24.095Z,-5.19
2023-02-08T08:13:51.561Z,-5.09
2023-02-08T08:16:19.774Z,-5.02
2023-02-08T08:18:48.240Z,-4.93
2023-02-08T08:21:16.609Z,-4.94
2023-02-08T08:23:43.203Z,-5.02
2023-02-08T08:26:14.486Z,-5.12
2023-02-08T08:28:42.406Z,-5.00
2023-02-08T08:31:12.792Z,-5.01
2023-02-08T08:33:39.398Z,-4.99
2023-02-08T08:36:06.484Z,-5.08
2023-02-08T08:38:33.057Z,-4.97
2023-02-08T08:40:59.504Z,-5.06
2023-02-08T08:43:26.029Z,-4.93
2023-02-08T08:45:53.175Z,-4.79
2023-02-08T08:48:19.788Z,-4.73
2023-02-08T08:50:46.763Z,-4.70
2023-02-08T08:53:13.386Z,-4.64
2023-02-08T08:55:39.877Z,-4.52
2023-02-08T08:58:06.330Z,-4.38
2023-02-08T09:00:32.863Z,-4.37
2023-02-08T09:02:59.467Z,-4.27
2023-02-08T09:05:26.018Z,-4.15
2023-02-08T09:07:52.534Z,-4.07
2023-02-08T09:10:22.042Z,-4.21
2023-02-08T09:12:48.649Z,-4.13
2023-02-08T09:15:15.225Z,-4.02
2023-02-08T09:17:41.709Z,-3.90
2023-02-08T09:20:09.003Z,-3.80
2023-02-08T09:22:35.537Z,-3.72
2023-02-08T09:25:02.089Z,-3.54
2023-02-08T09:27:29.696Z,-3.45
2023-02-08T09:29:56.188Z,-3.39
2023-02-08T09:32:23.039Z,-3.23
2023-02-08T09:34:49.656Z,-3.17
2023-02-08T09:37:17.221Z,-3.15
2023-02-08T09:39:44.993Z,-3.05
2023-02-08T09:42:29.639Z,-2.95
2023-02-08T09:45:17.225Z,-2.78
2023-02-08T09:47:59.836Z,-2.66
2023-02-08T09:50:39.524Z,-2.49
2023-02-08T09:53:34.249Z,-2.38
2023-02-08T09:56:06.469Z,-2.29
2023-02-08T09:58:49.762Z,-2.16
2023-02-08T10:01:25.077Z,-2.09
2023-02-08T10:04:39.968Z,-1.97
2023-02-08T10:07:06.680Z,-1.85
2023-02-08T10:09:33.613Z,-1.77
2023-02-08T10:12:41.205Z,-1.71
2023-02-08T10:15:36.326Z,-1.62
2023-02-08T10:18:33.245Z,-1.74
2023-02-08T10:21:19.693Z,-1.70
2023-02-08T10:24:34.891Z,-1.67
2023-02-08T10:27:40.198Z,-1.46
2023-02-08T10:30:35.577Z,-1.32
2023-02-08T10:33:16.097Z,-1.31
2023-02-08T10:35:49.897Z,-1.23
2023-02-08T10:38:19.045Z,-1.12
2023-02-08T10:40:52.318Z,-1.04
2023-02-08T10:43:28.814Z,-1.08
2023-02-08T10:47:00.819Z,-0.91
2023-02-08T10:50:31.903Z,-0.76
2023-02-08T10:52:58.442Z,-0.57
2023-02-08T10:55:26.276Z,-0.46
2023-02-08T10:57:59.535Z,-0.35
2023-02-08T11:00:39.037Z,-0.41
2023-02-08T11:03:26.480Z,-0.37
2023-02-08T11:05:53.654Z,-0.07
2023-02-08T11:08:23.803Z,0.08
2023-02-08T11:11:10.329Z,0.14
2023-02-08T11:13:42.254Z,0.13
2023-02-08T11:16:27.431Z,0.06
2023-02-08T11:19:01.145Z,-0.00
2023-02-08T11:21:40.068Z,0.07
2023-02-08T11:24:39.982Z,0.06
2023-02-08T11:27:32.598Z,0.19
2023-02-08T11:30:14.138Z,0.27
2023-02-08T11:32:42.550Z,0.34
2023-02-08T11:35:21.664Z,0.48
2023-02-08T11:37:58.578Z,0.62
2023-02-08T11:40:34.525Z,0.69
2023-02-08T11:43:02.014Z,0.84
2023-02-08T11:45:33.850Z,0.85
2023-02-08T11:48:03.001Z,0.96
2023-02-08T11:50:39.041Z,1.05
2023-02-08T11:53:31.201Z,0.95
2023-02-08T11:56:18.890Z,0.93
2023-02-08T11:58:57.341Z,1.02
2023-02-08T12:01:32.799Z,1.17
2023-02-08T12:04:03.291Z,1.25
2023-02-08T12:06:42.958Z,1.30
2023-02-08T12:09:30.648Z,1.46
2023-02-08T12:12:33.699Z,1.30
2023-02-08T12:15:28.737Z,1.22
2023-02-08T12:18:38.758Z,1.35
2023-02-08T12:21:21.785Z,1.33
2023-02-08T12:23:57.590Z,1.51
2023-02-08T12:26:51.125Z,1.47
2023-02-08T12:29:48.027Z,1.36
2023-02-08T12:32:52.670Z,1.49
2023-02-08T12:36:04.945Z,1.47
2023-02-08T12:39:23.320Z,1.55
2023-02-08T12:42:26.144Z,1.51
2023-02-08T12:45:09.331Z,1.55
2023-02-08T12:48:08.563Z,1.46
2023-02-08T12:50:51.164Z,1.53
2023-02-08T12:53:32.579Z,1.61
2023-02-08T12:56:10.288Z,1.88
2023-02-08T12:58:46.484Z,1.91
2023-02-08T13:01:21.660Z,1.92
2023-02-08T13:04:02.082Z,1.88
2023-02-08T13:06:47.320Z,1.98
2023-02-08T13:09:36.077Z,2.03
2023-02-08T13:12:14.997Z,2.06
2023-02-08T13:14:50.108Z,2.12
2023-02-08T13:17:27.625Z,2.12
2023-02-08T13:20:11.308Z,2.33
2023-02-08T13:22:42.283Z,2.24
2023-02-08T13:25:31.747Z,2.18
2023-02-08T13:28:05.619Z,2.07
2023-02-08T13:30:39.895Z,2.15
2023-02-08T13:33:24.423Z,2.08
2023-02-08T13:35:53.679Z,2.16
2023-02-08T13:38:36.538Z,2.27
2023-02-08T13:41:17.517Z,2.37
2023-02-08T13:43:50.853Z,2.19
2023-02-08T13:46:20.243Z,2.31
2023-02-08T13:48:54.515Z,2.25
2023-02-08T13:51:54.193Z,2.16
2023-02-08T13:54:21.397Z,2.23
2023-02-08T13:56:52.067Z,2.31
2023-02-08T13:59:35.013Z,2.43
2023-02-08T14:02:29.443Z,2.46
2023-02-08T14:05:37.798Z,2.45
2023-02-08T14:08:08.394Z,2.43
2023-02-08T14:10:45.388Z,2.41
2023-02-08T14:13:32.436Z,2.34
2023-02-08T14:16:29.537Z,2.40
2023-02-08T14:19:20.759Z,2.38
2023-02-08T14:21:59.318Z,2.50
2023-02-08T14:24:39.318Z,2.46
2023-02-08T14:27:49.298Z,2.40
2023-02-08T14:30:18.865Z,2.42
2023-02-08T14:32:50.875Z,2.36
2023-02-08T14:35:27.530Z,2.40
2023-02-08T14:38:18.611Z,2.29
2023-02-08T14:40:53.002Z,2.43
2023-02-08T14:43:19.409Z,2.44
2023-02-08T14:45:53.116Z,2.31
2023-02-08T14:48:30.136Z,2.41
2023-02-08T14:51:11.438Z,2.55
2023-02-08T14:53:56.886Z,2.46
2023-02-08T14:56:44.277Z,2.20
2023-02-08T14:59:23.385Z,2.12
2023-02-08T15:02:02.817Z,2.08
2023-02-08T15:04:30.680Z,2.16
2023-02-08T15:07:19.736Z,2.11
2023-02-08T15:09:46.797Z,2.07
2023-02-08T15:12:31.672Z,1.95
2023-02-08T15:15:02.107Z,2.00
2023-02-08T15:17:40.565Z,2.00
2023-02-08T15:20:36.548Z,1.89
2023-02-08T15:23:17.841Z,1.89
2023-02-08T15:25:56.270Z,1.83
2023-02-08T15:28:28.725Z,1.76
2023-02-08T15:31:05.754Z,1.75
2023-02-08T15:33:33.470Z,1.88
2023-02-08T15:36:06.728Z,1.79
2023-02-08T15:38:38.484Z,1.76
2023-02-08T15:41:16.258Z,1.73
2023-02-08T15:43:43.521Z,1.71
2023-02-08T15:46:22.220Z,1.58
2023-02-08T15:48:50.517Z,1.50
2023-02-08T15:51:22.882Z,1.45
2023-02-08T15:53:54.422Z,1.40
2023-02-08T15:56:37.894Z,1.33
2023-02-08T15:59:19.843Z,1.29
2023-02-08T16:01:48.223Z,1.24
2023-02-08T16:04:14.932Z,1.17
2023-02-08T16:06:51.542Z,1.10
2023-02-08T16:09:21.699Z,0.85
2023-02-08T16:11:50.438Z,1.03
2023-02-08T16:14:26.107Z,1.04
2023-02-08T16:16:58.387Z,0.96
2023-02-08T16:19:33.539Z,0.79
2023-02-08T16:22:12.191Z,0.67
2023-02-08T16:24:38.685Z,0.57
2023-02-08T16:27:25.539Z,0.28
2023-02-08T16:29:53.227Z,0.26
2023-02-08T16:32:31.941Z,0.19
2023-02-08T16:35:01.240Z,0.09
2023-02-08T16:37:32.479Z,-0.08
2023-02-08T16:40:04.954Z,-0.28
2023-02-08T16:42:36.614Z,-0.40
2023-02-08T16:45:20.551Z,-0.57
2023-02-08T16:48:00.173Z,-0.58
2023-02-08T16:50:33.625Z,-0.62
2023-02-08T16:53:03.665Z,-0.67
2023-02-08T16:55:33.668Z,-0.90
2023-02-08T16:58:00.400Z,-1.00
2023-02-08T17:00:35.001Z,-1.00
2023-02-08T17:03:01.957Z,-0.96
2023-02-08T17:05:38.072Z,-1.04
2023-02-08T17:08:12.497Z,-1.07
2023-02-08T17:10:39.276Z,-1.08
2023-02-08T17:13:21.587Z,-1.16
2023-02-08T17:15:51.002Z,-1.24
2023-02-08T17:18:17.487Z,-1.24
2023-02-08T17:20:44.458Z,-1.29
2023-02-08T17:23:12.383Z,-1.38
2023-02-08T17:25:39.469Z,-1.40
2023-02-08T17:28:14.275Z,-1.47
2023-02-08T17:30:43.713Z,-1.51
2023-02-08T17:33:17.978Z,-1.57
2023-02-08T17:35:48.304Z,-1.79
2023-02-08T17:38:15.473Z,-1.86
2023-02-08T17:40:43.826Z,-1.91
2023-02-08T17:43:12.735Z,-1.90
2023-02-08T17:45:43.189Z,-1.92
2023-02-08T17:48:10.491Z,-2.03
2023-02-08T17:50:37.009Z,-2.18
2023-02-08T17:53:04.069Z,-2.34
2023-02-08T17:55:31.320Z,-2.61
2023-02-08T17:57:58.055Z,-2.56
2023-02-08T18:00:25.294Z,-2.55
2023-02-08T18:02:55.497Z,-2.64
2023-02-08T18:05:27.361Z,-2.64
2023-02-08T18:07:56.458Z,-2.75
2023-02-08T18:10:25.436Z,-2.67
2023-02-08T18:12:52.071Z,-2.67
2023-02-08T18:15:21.754Z,-2.56
2023-02-08T18:17:50.285Z,-2.41
2023-02-08T18:20:18.080Z,-2.33
2023-02-08T18:22:45.224Z,-2.42
2023-02-08T18:25:15.880Z,-2.51
2023-02-08T18:27:42.352Z,-2.62
2023-02-08T18:30:11.345Z,-2.84
2023-02-08T18:32:37.903Z,-2.81
2023-02-08T18:35:07.284Z,-2.88
2023-02-08T18:37:35.177Z,-2.84
2023-02-08T18:40:02.275Z,-2.96
2023-02-08T18:42:28.936Z,-2.95
2023-02-08T18:44:55.521Z,-2.92
2023-02-08T18:47:22.863Z,-2.95
2023-02-08T18:49:54.821Z,-3.11
2023-02-08T18:52:23.562Z,-2.97
2023-02-08T18:54:50.122Z,-3.03
2023-02-08T18:57:16.737Z,-3.12
2023-02-08T18:59:43.226Z,-3.25
2023-02-08T19:02:18.010Z,-3.31
2023-02-08T19:04:44.596Z,-3.20
2023-02-08T19:07:11.144Z,-3.11
2023-02-08T19:09:39.809Z,-3.07
2023-02-08T19:12:07.556Z,-3.17
2023-02-08T19:14:34.251Z,-3.17
2023-02-08T19:17:00.908Z,-3.26
2023-02-08T19:19:27.407Z,-3.26
2023-02-08T19:21:54.031Z,-3.21
2023-02-08T19:24:20.572Z,-3.20
2023-02-08T19:26:48.008Z,-3.29
2023-02-08T19:29:19.924Z,-3.43
2023-02-08T19:31:47.096Z,-3.42
2023-02-08T19:34:13.882Z,-3.50
2023-02-08T19:36:52.925Z,-3.52
2023-02-08T19:39:26.255Z,-3.63
2023-02-08T19:41:54.215Z,-3.63
2023-02-08T19:44:21.207Z,-3.69
2023-02-08T19:46:54.628Z,-3.78
2023-02-08T19:49:25.372Z,-3.86
2023-02-08T19:51:52.790Z,-3.78
2023-02-08T19:54:20.330Z,-3.69
2023-02-08T19:56:50.175Z,-3.79
2023-02-08T19:59:33.581Z,-3.91
2023-02-08T20:02:02.115Z,-3.84
2023-02-08T20:04:28.789Z,-3.86
2023-02-08T20:06:55.355Z,-3.95
2023-02-08T20:09:22.095Z,-4.06
2023-02-08T20:11:56.723Z,-3.95
2023-02-08T20:14:24.277Z,-3.88
2023-02-08T20:16:50.885Z,-3.84
2023-02-08T20:19:17.636Z,-3.99
2023-02-08T20:21:45.371Z,-4.07
2023-02-08T20:24:12.732Z,-4.05
2023-02-08T20:26:43.095Z,-4.06
2023-02-08T20:29:10.949Z,-4.14
2023-02-08T20:31:42.425Z,-4.21
2023-02-08T20:34:13.694Z,-4.23
2023-02-08T20:36:49.725Z,-4.29
2023-02-08T20:39:20.606Z,-4.52
2023-02-08T20:41:47.962Z,-4.32
2023-02-08T20:44:18.079Z,-4.13
2023-02-08T20:46:46.405Z,-3.96
2023-02-08T20:49:21.974Z,-3.96
2023-02-08T20:51:52.412Z,-4.05
2023-02-08T20:54:19.613Z,-3.95
2023-02-08T20:56:46.143Z,-3.96
2023-02-08T20:59:15.716Z,-4.14
2023-02-08T21:01:43.973Z,-4.09
2023-02-08T21:04:11.576Z,-4.24
2023-02-08T21:06:38.477Z,-4.14
2023-02-08T21:09:13.501Z,-4.23
2023-02-08T21:11:40.820Z,-4.25
2023-02-08T21:14:09.041Z,-4.41
2023-02-08T21:16:35.517Z,-4.40
2023-02-08T21:19:02.250Z,-4.37
2023-02-08T21:21:28.924Z,-4.25
2023-02-08T21:23:57.804Z,-4.15
2023-02-08T21:26:25.512Z,-4.14
2023-02-08T21:28:54.606Z,-4.19
2023-02-08T21:31:23.452Z,-4.24
2023-02-08T21:33:50.830Z,-4.43
2023-02-08T21:36:21.978Z,-4.47
2023-02-08T21:38:48.977Z,-4.44
2023-02-08T21:41:22.751Z,-4.39
2023-02-08T21:43:52.545Z,-4.37
2023-02-08T21:46:19.116Z,-4.32
2023-02-08T21:49:05.005Z,-4.30
2023-02-08T21:51:50.217Z,-4.27
2023-02-08T21:54:39.868Z,-4.34
2023-02-08T21:57:10.099Z,-4.38
2023-02-08T21:59:37.607Z,-4.54
2023-02-08T22:02:07.785Z,-4.52
2023-02-08T22:04:36.267Z,-4.38
2023-02-08T22:07:06.702Z,-4.40
2023-02-08T22:09:33.291Z,-4.40
2023-02-08T22:11:59.854Z,-4.63
2023-02-08T22:14:26.404Z,-4.71
2023-02-08T22:16:53.055Z,-4.76
2023-02-08T22:19:19.547Z,-4.89
2023-02-08T22:21:46.205Z,-4.99
2023-02-08T22:24:12.699Z,-5.09
2023-02-08T22:26:39.281Z,-5.05
2023-02-08T22:29:05.835Z,-4.94
2023-02-08T22:31:32.466Z,-4.87
2023-02-08T22:33:59.133Z,-4.75
2023-02-08T22:36:25.589Z,-4.66
2023-02-08T22:38:52.237Z,-4.66
2023-02-08T22:41:22.527Z,-4.73
2023-02-08T22:43:49.680Z,-4.73
2023-02-08T22:46:16.218Z,-5.03
2023-02-08T22:48:42.739Z,-5.12
2023-02-08T22:51:14.479Z,-5.08
2023-02-08T22:53:41.466Z,-5.08
2023-02-08T22:56:08.140Z,-4.91
2023-02-08T22:58:35.462Z,-4.94
2023-02-08T23:01:02.031Z,-5.01
2023-02-08T23:03:28.614Z,-4.94
2023-02-08T23:05:55.105Z,-4.97
2023-02-08T23:08:22.665Z,-4.97
2023-02-08T23:10:49.270Z,-4.83
2023-02-08T23:13:18.593Z,-4.81
2023-02-08T23:15:45.210Z,-4.90
2023-02-08T23:18:12.523Z,-4.81
2023-02-08T23:20:42.208Z,-4.67
2023-02-08T23:23:09.120Z,-4.63
2023-02-08T23:25:40.059Z,-4.83
2023-02-08T23:28:09.339Z,-4.94
2023-02-08T23:30:42.708Z,-4.97
2023-02-08T23:33:09.734Z,-5.02
2023-02-08T23:35:41.231Z,-5.07
2023-02-08T23:38:08.880Z,-5.14
2023-02-08T23:40:35.371Z,-5.30
2023-02-08T23:43:02.001Z,-5.18
2023-02-08T23:45:28.637Z,-5.06
2023-02-08T23:47:55.147Z,-4.92
2023-02-08T23:50:21.646Z,-4.85
2023-02-08T23:52:48.109Z,-5.02
2023-02-08T23:55:14.614Z,-5.04
2023-02-08T23:57:41.157Z,-5.07
